createdAt,value
2022-08-02T00:00:58.006Z,22.30
2022-08-02T00:06:01.088Z,22.26
2022-08-02T00:11:04.988Z,22.22
2022-08-02T00:16:16.932Z,22.18
2022-08-02T00:21:20.119Z,22.13
2022-08-02T00:26:23.050Z,22.07
2022-08-02T00:31:26.071Z,22.03
2022-08-02T00:36:29.457Z,21.97
2022-08-02T00:41:32.319Z,21.93
2022-08-02T00:46:35.224Z,21.94
2022-08-02T00:51:39.261Z,21.93
2022-08-02T00:56:50.021Z,21.86
2022-08-02T01:01:58.139Z,21.81
2022-08-02T01:07:12.304Z,21.77
2022-08-02T01:12:17.026Z,21.75
2022-08-02T01:17:34.518Z,21.77
2022-08-02T01:23:01.588Z,21.76
2022-08-02T01:28:26.148Z,21.70
2022-08-02T01:33:43.062Z,21.68
2022-08-02T01:38:53.490Z,21.70
2022-08-02T01:43:59.551Z,21.70
2022-08-02T01:49:08.515Z,21.70
2022-08-02T01:54:17.705Z,21.69
2022-08-02T01:59:23.154Z,21.64
2022-08-02T02:04:29.302Z,21.60
2022-08-02T02:09:37.389Z,21.63
2022-08-02T02:14:56.173Z,21.67
2022-08-02T02:20:01.949Z,21.68
2022-08-02T02:25:06.567Z,21.65
2022-08-02T02:30:10.077Z,21.62
2022-08-02T02:35:16.476Z,21.63
2022-08-02T02:40:20.725Z,21.63
2022-08-02T02:45:24.290Z,21.61
2022-08-02T02:50:28.718Z,21.62
2022-08-02T02:55:32.083Z,21.58
2022-08-02T03:00:53.816Z,21.52
2022-08-02T03:05:56.790Z,21.49
2022-08-02T03:11:00.325Z,21.47
2022-08-02T03:16:03.774Z,21.53
2022-08-02T03:21:08.798Z,21.52
2022-08-02T03:26:12.620Z,21.55
2022-08-02T03:31:15.697Z,21.57
2022-08-02T03:36:21.702Z,21.61
2022-08-02T03:41:25.568Z,21.53
2022-08-02T03:46:28.950Z,21.53
2022-08-02T03:51:31.961Z,21.56
2022-08-02T03:56:35.270Z,21.64
2022-08-02T04:01:38.295Z,21.69
2022-08-02T04:06:41.853Z,21.75
2022-08-02T04:11:44.828Z,21.73
2022-08-02T04:16:53.784Z,21.71
2022-08-02T04:22:00.061Z,21.74
2022-08-02T04:27:19.249Z,21.77
2022-08-02T04:32:27.976Z,21.71
2022-08-02T04:37:31.193Z,21.67
2022-08-02T04:42:34.302Z,21.66
2022-08-02T04:48:02.139Z,21.66
2022-08-02T04:53:00.140Z,21.72
2022-08-02T04:58:04.253Z,21.68
2022-08-02T05:03:12.727Z,21.64
2022-08-02T05:08:15.620Z,21.63
2022-08-02T05:13:18.556Z,21.63
2022-08-02T05:18:21.759Z,21.65
2022-08-02T05:23:24.699Z,21.65
2022-08-02T05:28:28.116Z,21.65
2022-08-02T05:33:31.079Z,21.67
2022-08-02T05:38:36.942Z,21.67
2022-08-02T05:43:40.581Z,21.67
2022-08-02T05:48:45.066Z,21.68
2022-08-02T05:53:56.946Z,21.66
2022-08-02T05:59:13.862Z,21.69
2022-08-02T06:04:26.286Z,21.78
2022-08-02T06:09:29.548Z,21.88
2022-08-02T06:14:33.800Z,21.97
2022-08-02T06:19:51.858Z,21.99
2022-08-02T06:24:58.954Z,22.01
2022-08-02T06:30:03.569Z,22.05
2022-08-02T06:35:09.470Z,22.14
2022-08-02T06:40:35.950Z,22.23
2022-08-02T06:45:40.119Z,22.31
2022-08-02T06:50:44.398Z,22.33
2022-08-02T06:55:47.383Z,22.33
2022-08-02T07:00:50.655Z,22.29
2022-08-02T07:05:54.183Z,22.32
2022-08-02T07:10:58.436Z,22.39
2022-08-02T07:16:02.742Z,22.40
2022-08-02T07:21:06.341Z,22.43
2022-08-02T07:26:13.082Z,22.56
2022-08-02T07:31:16.052Z,22.62
2022-08-02T07:36:22.432Z,22.59
2022-08-02T07:41:26.124Z,22.59
2022-08-02T07:46:29.176Z,22.62
2022-08-02T07:51:33.554Z,22.60
2022-08-02T07:56:37.470Z,22.73
2022-08-02T08:01:45.009Z,22.85
2022-08-02T08:06:52.148Z,22.94
2022-08-02T08:11:55.076Z,23.03
2022-08-02T08:16:57.960Z,23.09
2022-08-02T08:22:01.019Z,23.17
2022-08-02T08:27:05.866Z,23.26
2022-08-02T08:32:15.676Z,23.33
2022-08-02T08:37:19.544Z,23.42
2022-08-02T08:42:22.421Z,23.57
2022-08-02T08:47:39.928Z,23.67
2022-08-02T08:52:53.630Z,23.73
2022-08-02T08:57:58.762Z,23.79
2022-08-02T09:03:06.274Z,23.76
2022-08-02T09:08:13.458Z,23.82
2022-08-02T09:13:38.591Z,23.88
2022-08-02T09:18:48.676Z,23.94
2022-08-02T09:23:53.009Z,24.09
2022-08-02T09:29:02.636Z,24.23
2022-08-02T09:34:05.929Z,24.28
2022-08-02T09:39:14.627Z,24.35
2022-08-02T09:44:17.596Z,24.42
2022-08-02T09:49:20.780Z,24.48
2022-08-02T09:54:29.339Z,24.62
2022-08-02T09:59:32.592Z,24.73
2022-08-02T10:04:52.552Z,24.73
2022-08-02T10:09:57.402Z,24.62
2022-08-02T10:15:00.450Z,24.62
2022-08-02T10:20:04.895Z,24.84
2022-08-02T10:25:09.174Z,25.15
2022-08-02T10:30:12.814Z,25.51
2022-08-02T10:35:25.000Z,25.77
2022-08-02T10:41:02.982Z,25.74
2022-08-02T10:46:29.726Z,25.53
2022-08-02T10:52:13.747Z,25.41
2022-08-02T10:57:26.232Z,25.43
2022-08-02T11:02:44.273Z,25.62
2022-08-02T11:07:50.019Z,25.72
2022-08-02T11:13:04.946Z,25.70
2022-08-02T11:18:07.852Z,25.60
2022-08-02T11:23:45.084Z,25.86
2022-08-02T11:28:50.135Z,26.16
2022-08-02T11:33:53.122Z,26.22
2022-08-02T11:39:12.664Z,26.52
2022-08-02T11:44:19.893Z,26.60
2022-08-02T11:49:27.114Z,26.44
2022-08-02T11:54:32.540Z,26.36
2022-08-02T11:59:40.327Z,26.63
2022-08-02T12:04:44.167Z,26.98
2022-08-02T12:09:47.073Z,27.22
2022-08-02T12:14:51.963Z,27.55
2022-08-02T12:19:54.932Z,27.93
2022-08-02T12:24:58.663Z,27.91
2022-08-02T12:30:06.840Z,27.59
2022-08-02T12:35:26.686Z,27.79
2022-08-02T12:40:32.459Z,27.90
2022-08-02T12:45:55.683Z,28.21
2022-08-02T12:50:58.869Z,28.55
2022-08-02T12:56:03.901Z,28.90
2022-08-02T13:01:07.260Z,29.14
2022-08-02T13:06:29.484Z,29.14
2022-08-02T13:11:33.221Z,29.16
2022-08-02T13:16:36.059Z,29.12
2022-08-02T13:21:41.194Z,29.18
2022-08-02T13:27:05.192Z,28.97
2022-08-02T13:32:11.962Z,28.65
2022-08-02T13:37:15.365Z,28.40
2022-08-02T13:42:18.509Z,28.15
2022-08-02T13:47:26.704Z,27.91
2022-08-02T13:52:39.442Z,27.77
2022-08-02T13:57:42.456Z,28.10
2022-08-02T14:02:45.468Z,28.52
2022-08-02T14:07:48.350Z,28.93
2022-08-02T14:12:56.749Z,29.25
2022-08-02T14:17:59.714Z,29.50
2022-08-02T14:23:02.558Z,29.65
2022-08-02T14:28:06.677Z,29.68
2022-08-02T14:33:09.623Z,29.41
2022-08-02T14:38:12.779Z,29.28
2022-08-02T14:43:34.278Z,29.15
2022-08-02T14:48:37.095Z,28.98
2022-08-02T14:53:49.436Z,28.69
2022-08-02T14:59:04.936Z,28.47
2022-08-02T15:04:07.993Z,28.35
2022-08-02T15:09:10.981Z,28.21
2022-08-02T15:14:13.958Z,28.10
2022-08-02T15:19:16.969Z,27.91
2022-08-02T15:24:22.083Z,27.63
2022-08-02T15:29:25.006Z,27.34
2022-08-02T15:34:27.845Z,27.12
2022-08-02T15:39:31.264Z,26.97
2022-08-02T15:44:34.389Z,26.83
2022-08-02T15:49:41.372Z,26.78
2022-08-02T15:54:44.613Z,26.77
2022-08-02T15:59:47.658Z,26.75
2022-08-02T16:04:50.637Z,26.76
2022-08-02T16:09:53.548Z,26.78
2022-08-02T16:14:56.473Z,26.79
2022-08-02T16:19:59.394Z,26.77
2022-08-02T16:25:02.819Z,26.67
2022-08-02T16:30:06.459Z,26.53
2022-08-02T16:35:09.480Z,26.39
2022-08-02T16:40:12.721Z,26.31
2022-08-02T16:45:15.695Z,26.25
2022-08-02T16:50:27.131Z,26.31
2022-08-02T16:55:30.770Z,26.24
2022-08-02T17:00:34.258Z,26.16
2022-08-02T17:05:56.013Z,26.15
2022-08-02T17:11:03.704Z,26.15
2022-08-02T17:16:26.216Z,26.11
2022-08-02T17:21:31.975Z,26.10
2022-08-02T17:26:38.269Z,26.11
2022-08-02T17:31:42.889Z,26.13
2022-08-02T17:36:49.762Z,26.14
2022-08-02T17:41:52.980Z,26.10
2022-08-02T17:46:56.411Z,26.05
2022-08-02T17:52:48.723Z,25.97
2022-08-02T17:57:22.396Z,25.85
2022-08-02T18:02:26.911Z,25.78
2022-08-02T18:07:30.112Z,25.68
2022-08-02T18:12:53.512Z,25.58
2022-08-02T18:17:59.083Z,25.47
2022-08-02T18:23:02.167Z,25.37
2022-08-02T18:28:05.383Z,25.27
2022-08-02T18:33:56.861Z,25.18
2022-08-02T18:38:31.659Z,25.11
2022-08-02T18:43:39.318Z,25.03
2022-08-02T18:48:47.760Z,24.98
2022-08-02T18:53:53.335Z,24.97
2022-08-02T18:58:58.347Z,24.90
2022-08-02T19:04:08.747Z,24.80
2022-08-02T19:09:13.579Z,24.66
2022-08-02T19:14:24.301Z,24.56
2022-08-02T19:19:31.158Z,24.46
2022-08-02T19:24:37.182Z,24.37
2022-08-02T19:29:49.075Z,24.24
2022-08-02T19:34:56.133Z,24.12
2022-08-02T19:39:59.058Z,24.03
2022-08-02T19:45:02.371Z,23.93
2022-08-02T19:50:08.311Z,23.85
2022-08-02T19:55:59.907Z,23.81
2022-08-02T20:00:36.681Z,23.85
2022-08-02T20:05:39.737Z,23.89
2022-08-02T20:10:45.944Z,23.86
2022-08-02T20:15:55.797Z,23.85
2022-08-02T20:21:00.253Z,23.84
2022-08-02T20:26:05.431Z,23.74
2022-08-02T20:31:10.128Z,23.67
2022-08-02T20:36:14.254Z,23.57
2022-08-02T20:41:21.492Z,23.45
2022-08-02T20:46:24.763Z,23.32
2022-08-02T20:51:33.495Z,23.24
2022-08-02T20:56:37.615Z,23.24
2022-08-02T21:01:41.226Z,23.20
2022-08-02T21:07:00.558Z,23.07
2022-08-02T21:12:05.275Z,22.96
2022-08-02T21:17:11.116Z,22.89
2022-08-02T21:22:14.623Z,22.82
2022-08-02T21:27:51.579Z,22.76
2022-08-02T21:32:41.897Z,22.71
2022-08-02T21:37:47.384Z,22.65
2022-08-02T21:42:50.236Z,22.58
2022-08-02T21:47:53.657Z,22.53
2022-08-02T21:52:56.473Z,22.52
2022-08-02T21:57:59.318Z,22.46
2022-08-02T22:03:22.727Z,22.39
2022-08-02T22:08:25.420Z,22.39
2022-08-02T22:13:29.546Z,22.40
2022-08-02T22:18:41.887Z,22.39
2022-08-02T22:23:54.560Z,22.31
2022-08-02T22:28:59.598Z,22.21
2022-08-02T22:34:05.537Z,22.09
2022-08-02T22:39:28.517Z,21.98
2022-08-02T22:44:31.564Z,21.92
2022-08-02T22:49:51.501Z,21.91
2022-08-02T22:54:57.548Z,21.90
2022-08-02T23:00:01.195Z,21.83
2022-08-02T23:05:05.173Z,21.74
2022-08-02T23:10:08.949Z,21.65
2022-08-02T23:15:11.869Z,21.58
2022-08-02T23:20:14.835Z,21.52
2022-08-02T23:25:18.071Z,21.49
2022-08-02T23:30:21.302Z,21.47
2022-08-02T23:35:24.217Z,21.47
2022-08-02T23:40:38.764Z,21.47
2022-08-02T23:45:46.192Z,21.46
2022-08-02T23:50:49.342Z,21.44
2022-08-02T23:55:52.253Z,21.38
